Information Last Ob Photographs Meteogram Network Table Neighbors Monthly Summaries Observation History Wind Roses Custom Wind Roses Data Calendar Satellite Cloud Product Download

Most Recent Observation

This application displays the last observation received by the IEM from this site. The time stamp is in America/Chicago timezone.

Observation Local Time15 Apr 2024, 3:56 AM
Observation UTC Time2024-04-15T08:56:00Z
Air Temp [F]65
Maximum Air Temperature [F]66
Minimum Air Temperature [F]65
Dew Point [F]65
Wind DirectionSE (140 degrees)
Wind Speed [knots]6
Altimeter [inches]29.89
Raw Observation/ProductKPRX 150856Z AUTO 14006KT 10SM CLR 18/18 A2989 RMK AO2 SLP120 T01830183 55013
Cloud Layer 1: CLR ( feet)

This data was provided by a JSON(P) webservice. You can find more JSON services.